sensor_id;sensor_type;location;lat;lon;timestamp;temperature;humidity
21335;DHT22;10826;52.536;13.432;2022-07-29T00:00:23;20.90;39.20
21335;DHT22;10826;52.536;13.432;2022-07-29T00:02:49;20.90;39.30
21335;DHT22;10826;52.536;13.432;2022-07-29T00:05:15;20.90;39.40
21335;DHT22;10826;52.536;13.432;2022-07-29T00:07:44;20.80;39.50
21335;DHT22;10826;52.536;13.432;2022-07-29T00:10:10;20.80;39.60
21335;DHT22;10826;52.536;13.432;2022-07-29T00:12:35;20.70;39.70
21335;DHT22;10826;52.536;13.432;2022-07-29T00:15:01;20.70;39.90
21335;DHT22;10826;52.536;13.432;2022-07-29T00:17:28;20.70;40.00
21335;DHT22;10826;52.536;13.432;2022-07-29T00:19:54;20.70;40.10
21335;DHT22;10826;52.536;13.432;2022-07-29T00:22:20;20.70;40.30
21335;DHT22;10826;52.536;13.432;2022-07-29T00:24:49;20.60;40.30
21335;DHT22;10826;52.536;13.432;2022-07-29T00:27:16;20.60;40.40
21335;DHT22;10826;52.536;13.432;2022-07-29T00:29:42;20.60;40.50
21335;DHT22;10826;52.536;13.432;2022-07-29T00:32:08;20.60;40.60
21335;DHT22;10826;52.536;13.432;2022-07-29T00:34:35;20.60;40.70
21335;DHT22;10826;52.536;13.432;2022-07-29T00:37:19;20.60;40.80
21335;DHT22;10826;52.536;13.432;2022-07-29T00:39:45;20.50;41.10
21335;DHT22;10826;52.536;13.432;2022-07-29T00:42:11;20.50;41.10
21335;DHT22;10826;52.536;13.432;2022-07-29T00:44:41;20.50;41.20
21335;DHT22;10826;52.536;13.432;2022-07-29T00:47:09;20.50;41.30
21335;DHT22;10826;52.536;13.432;2022-07-29T00:49:36;20.50;41.30
21335;DHT22;10826;52.536;13.432;2022-07-29T00:52:05;20.40;41.30
21335;DHT22;10826;52.536;13.432;2022-07-29T00:54:32;20.50;41.60
21335;DHT22;10826;52.536;13.432;2022-07-29T00:56:59;20.40;41.50
21335;DHT22;10826;52.536;13.432;2022-07-29T00:59:28;20.40;41.70
21335;DHT22;10826;52.536;13.432;2022-07-29T01:01:55;20.40;42.50
21335;DHT22;10826;52.536;13.432;2022-07-29T01:04:21;20.40;41.90
21335;DHT22;10826;52.536;13.432;2022-07-29T01:06:48;20.30;42.00
21335;DHT22;10826;52.536;13.432;2022-07-29T01:09:15;20.30;42.10
21335;DHT22;10826;52.536;13.432;2022-07-29T01:11:45;20.30;42.10
21335;DHT22;10826;52.536;13.432;2022-07-29T01:14:14;20.30;42.20
21335;DHT22;10826;52.536;13.432;2022-07-29T01:16:54;20.30;42.30
21335;DHT22;10826;52.536;13.432;2022-07-29T01:19:56;20.30;42.30
21335;DHT22;10826;52.536;13.432;2022-07-29T01:22:53;20.30;42.30
21335;DHT22;10826;52.536;13.432;2022-07-29T01:25:54;20.20;42.20
21335;DHT22;10826;52.536;13.432;2022-07-29T01:28:41;20.20;42.50
21335;DHT22;10826;52.536;13.432;2022-07-29T01:31:15;20.10;43.00
21335;DHT22;10826;52.536;13.432;2022-07-29T01:33:47;20.20;42.80
21335;DHT22;10826;52.536;13.432;2022-07-29T01:36:44;20.10;43.10
21335;DHT22;10826;52.536;13.432;2022-07-29T01:39:19;20.10;43.00
21335;DHT22;10826;52.536;13.432;2022-07-29T01:41:58;20.20;43.00
21335;DHT22;10826;52.536;13.432;2022-07-29T01:44:35;20.20;43.00
21335;DHT22;10826;52.536;13.432;2022-07-29T01:47:19;20.10;43.10
21335;DHT22;10826;52.536;13.432;2022-07-29T01:49:50;20.00;43.00
21335;DHT22;10826;52.536;13.432;2022-07-29T01:52:29;20.00;43.30
21335;DHT22;10826;52.536;13.432;2022-07-29T01:55:04;20.00;43.30
21335;DHT22;10826;52.536;13.432;2022-07-29T01:57:38;20.00;43.40
21335;DHT22;10826;52.536;13.432;2022-07-29T02:00:08;19.90;43.60
21335;DHT22;10826;52.536;13.432;2022-07-29T02:02:35;19.80;43.60
21335;DHT22;10826;52.536;13.432;2022-07-29T02:05:06;19.80;43.70
21335;DHT22;10826;52.536;13.432;2022-07-29T02:07:37;19.80;43.80
21335;DHT22;10826;52.536;13.432;2022-07-29T02:10:05;19.80;44.00
21335;DHT22;10826;52.536;13.432;2022-07-29T02:12:33;19.70;44.10
21335;DHT22;10826;52.536;13.432;2022-07-29T02:15:03;19.70;44.20
21335;DHT22;10826;52.536;13.432;2022-07-29T02:17:37;19.70;44.30
21335;DHT22;10826;52.536;13.432;2022-07-29T02:20:08;19.70;44.30
21335;DHT22;10826;52.536;13.432;2022-07-29T02:22:37;19.60;44.20
21335;DHT22;10826;52.536;13.432;2022-07-29T02:25:06;19.60;44.40
21335;DHT22;10826;52.536;13.432;2022-07-29T02:27:34;19.60;44.40
21335;DHT22;10826;52.536;13.432;2022-07-29T02:30:04;19.60;44.50
21335;DHT22;10826;52.536;13.432;2022-07-29T02:32:34;19.60;45.30
21335;DHT22;10826;52.536;13.432;2022-07-29T02:35:02;19.60;44.50
21335;DHT22;10826;52.536;13.432;2022-07-29T02:37:30;19.50;44.60
21335;DHT22;10826;52.536;13.432;2022-07-29T02:39:58;19.50;44.50
21335;DHT22;10826;52.536;13.432;2022-07-29T02:42:26;19.60;44.50
21335;DHT22;10826;52.536;13.432;2022-07-29T02:44:54;19.60;44.50
21335;DHT22;10826;52.536;13.432;2022-07-29T02:47:39;19.50;44.50
21335;DHT22;10826;52.536;13.432;2022-07-29T02:50:21;19.60;44.30
21335;DHT22;10826;52.536;13.432;2022-07-29T02:53:22;19.60;44.40
21335;DHT22;10826;52.536;13.432;2022-07-29T02:56:13;19.60;44.50
21335;DHT22;10826;52.536;13.432;2022-07-29T02:58:46;19.50;44.40
21335;DHT22;10826;52.536;13.432;2022-07-29T03:01:20;19.50;44.40
21335;DHT22;10826;52.536;13.432;2022-07-29T03:03:50;19.50;44.50
21335;DHT22;10826;52.536;13.432;2022-07-29T03:06:19;19.50;44.50
21335;DHT22;10826;52.536;13.432;2022-07-29T03:08:47;19.50;44.50
21335;DHT22;10826;52.536;13.432;2022-07-29T03:11:14;19.40;44.40
21335;DHT22;10826;52.536;13.432;2022-07-29T03:13:42;19.50;44.50
21335;DHT22;10826;52.536;13.432;2022-07-29T03:16:09;19.50;44.60
21335;DHT22;10826;52.536;13.432;2022-07-29T03:18:36;19.50;44.60
21335;DHT22;10826;52.536;13.432;2022-07-29T03:21:03;19.50;44.50
21335;DHT22;10826;52.536;13.432;2022-07-29T03:23:29;19.50;44.40
21335;DHT22;10826;52.536;13.432;2022-07-29T03:25:56;19.50;44.40
21335;DHT22;10826;52.536;13.432;2022-07-29T03:28:22;19.50;44.40
21335;DHT22;10826;52.536;13.432;2022-07-29T03:30:49;19.50;44.30
21335;DHT22;10826;52.536;13.432;2022-07-29T03:33:15;19.50;44.30
21335;DHT22;10826;52.536;13.432;2022-07-29T03:35:41;19.60;44.20
21335;DHT22;10826;52.536;13.432;2022-07-29T03:38:07;19.50;44.20
21335;DHT22;10826;52.536;13.432;2022-07-29T03:41:07;19.60;44.20
21335;DHT22;10826;52.536;13.432;2022-07-29T03:43:38;19.60;44.00
21335;DHT22;10826;52.536;13.432;2022-07-29T03:46:07;19.50;44.10
21335;DHT22;10826;52.536;13.432;2022-07-29T03:48:38;19.50;44.20
21335;DHT22;10826;52.536;13.432;2022-07-29T03:51:07;19.50;44.10
21335;DHT22;10826;52.536;13.432;2022-07-29T03:53:33;19.50;44.20
21335;DHT22;10826;52.536;13.432;2022-07-29T03:56:02;19.50;44.30
21335;DHT22;10826;52.536;13.432;2022-07-29T03:58:30;19.50;44.30
21335;DHT22;10826;52.536;13.432;2022-07-29T04:00:57;19.50;44.30
21335;DHT22;10826;52.536;13.432;2022-07-29T04:03:24;19.40;44.30
21335;DHT22;10826;52.536;13.432;2022-07-29T04:06:02;19.50;44.40
21335;DHT22;10826;52.536;13.432;2022-07-29T04:08:32;19.50;44.30
21335;DHT22;10826;52.536;13.432;2022-07-29T04:11:00;19.50;44.40
21335;DHT22;10826;52.536;13.432;2022-07-29T04:13:27;19.50;44.50
21335;DHT22;10826;52.536;13.432;2022-07-29T04:15:53;19.40;44.30
21335;DHT22;10826;52.536;13.432;2022-07-29T04:18:19;19.40;44.40
21335;DHT22;10826;52.536;13.432;2022-07-29T04:20:45;19.50;44.50
21335;DHT22;10826;52.536;13.432;2022-07-29T04:23:11;19.50;44.40
21335;DHT22;10826;52.536;13.432;2022-07-29T04:25:38;19.50;44.40
21335;DHT22;10826;52.536;13.432;2022-07-29T04:28:06;19.50;44.30
21335;DHT22;10826;52.536;13.432;2022-07-29T04:30:33;19.50;44.30
21335;DHT22;10826;52.536;13.432;2022-07-29T04:33:02;19.50;44.30
21335;DHT22;10826;52.536;13.432;2022-07-29T04:35:30;19.50;44.40
21335;DHT22;10826;52.536;13.432;2022-07-29T04:37:56;19.50;44.50
21335;DHT22;10826;52.536;13.432;2022-07-29T04:40:22;19.50;44.50
21335;DHT22;10826;52.536;13.432;2022-07-29T04:42:48;19.50;44.40
21335;DHT22;10826;52.536;13.432;2022-07-29T04:45:14;19.60;44.30
21335;DHT22;10826;52.536;13.432;2022-07-29T04:47:40;19.60;44.20
21335;DHT22;10826;52.536;13.432;2022-07-29T04:50:08;19.60;44.20
21335;DHT22;10826;52.536;13.432;2022-07-29T04:52:35;19.70;44.40
21335;DHT22;10826;52.536;13.432;2022-07-29T04:55:01;19.60;44.20
21335;DHT22;10826;52.536;13.432;2022-07-29T04:57:27;19.70;44.20
21335;DHT22;10826;52.536;13.432;2022-07-29T04:59:53;19.70;44.10
21335;DHT22;10826;52.536;13.432;2022-07-29T05:02:18;19.70;44.10
21335;DHT22;10826;52.536;13.432;2022-07-29T05:04:44;19.70;44.10
21335;DHT22;10826;52.536;13.432;2022-07-29T05:07:10;19.70;44.00
21335;DHT22;10826;52.536;13.432;2022-07-29T05:09:36;19.70;43.90
21335;DHT22;10826;52.536;13.432;2022-07-29T05:12:02;19.80;43.90
21335;DHT22;10826;52.536;13.432;2022-07-29T05:14:28;19.80;43.80
21335;DHT22;10826;52.536;13.432;2022-07-29T05:16:54;19.90;43.70
21335;DHT22;10826;52.536;13.432;2022-07-29T05:19:22;19.90;43.70
21335;DHT22;10826;52.536;13.432;2022-07-29T05:21:48;19.90;43.70
21335;DHT22;10826;52.536;13.432;2022-07-29T05:24:15;20.00;43.60
21335;DHT22;10826;52.536;13.432;2022-07-29T05:26:42;20.00;43.40
21335;DHT22;10826;52.536;13.432;2022-07-29T05:29:08;20.10;43.50
21335;DHT22;10826;52.536;13.432;2022-07-29T05:31:34;20.10;43.30
21335;DHT22;10826;52.536;13.432;2022-07-29T05:34:00;20.20;43.20
21335;DHT22;10826;52.536;13.432;2022-07-29T05:36:26;20.30;43.20
21335;DHT22;10826;52.536;13.432;2022-07-29T05:38:52;20.40;43.00
21335;DHT22;10826;52.536;13.432;2022-07-29T05:41:19;20.50;42.80
21335;DHT22;10826;52.536;13.432;2022-07-29T05:43:45;20.50;42.70
21335;DHT22;10826;52.536;13.432;2022-07-29T05:46:11;20.50;42.50
21335;DHT22;10826;52.536;13.432;2022-07-29T05:48:36;20.60;42.40
21335;DHT22;10826;52.536;13.432;2022-07-29T05:51:03;20.60;42.30
21335;DHT22;10826;52.536;13.432;2022-07-29T05:53:30;20.70;42.30
21335;DHT22;10826;52.536;13.432;2022-07-29T05:55:56;20.70;42.30
21335;DHT22;10826;52.536;13.432;2022-07-29T05:58:22;20.70;42.50
21335;DHT22;10826;52.536;13.432;2022-07-29T06:00:48;20.70;42.30
21335;DHT22;10826;52.536;13.432;2022-07-29T06:03:14;20.80;42.20
21335;DHT22;10826;52.536;13.432;2022-07-29T06:05:41;20.80;42.20
21335;DHT22;10826;52.536;13.432;2022-07-29T06:08:07;20.80;42.10
21335;DHT22;10826;52.536;13.432;2022-07-29T06:10:36;20.90;42.00
21335;DHT22;10826;52.536;13.432;2022-07-29T06:13:02;21.00;41.80
21335;DHT22;10826;52.536;13.432;2022-07-29T06:15:28;21.10;41.80
21335;DHT22;10826;52.536;13.432;2022-07-29T06:17:58;21.10;41.50
21335;DHT22;10826;52.536;13.432;2022-07-29T06:20:25;21.30;41.30
21335;DHT22;10826;52.536;13.432;2022-07-29T06:22:52;21.40;41.30
21335;DHT22;10826;52.536;13.432;2022-07-29T06:25:18;21.50;41.30
21335;DHT22;10826;52.536;13.432;2022-07-29T06:27:44;21.60;41.10
21335;DHT22;10826;52.536;13.432;2022-07-29T06:30:10;21.70;40.80
21335;DHT22;10826;52.536;13.432;2022-07-29T06:32:37;21.90;40.50
21335;DHT22;10826;52.536;13.432;2022-07-29T06:35:04;22.00;40.10
21335;DHT22;10826;52.536;13.432;2022-07-29T06:37:30;22.10;40.00
21335;DHT22;10826;52.536;13.432;2022-07-29T06:39:58;22.30;39.60
21335;DHT22;10826;52.536;13.432;2022-07-29T06:42:43;22.40;39.30
21335;DHT22;10826;52.536;13.432;2022-07-29T06:45:11;22.50;39.20
21335;DHT22;10826;52.536;13.432;2022-07-29T06:47:37;22.50;39.00
21335;DHT22;10826;52.536;13.432;2022-07-29T06:50:04;22.60;38.90
21335;DHT22;10826;52.536;13.432;2022-07-29T06:52:31;22.60;38.90
21335;DHT22;10826;52.536;13.432;2022-07-29T06:55:00;22.70;39.70
21335;DHT22;10826;52.536;13.432;2022-07-29T06:57:26;22.70;38.90
21335;DHT22;10826;52.536;13.432;2022-07-29T06:59:52;22.70;38.70
21335;DHT22;10826;52.536;13.432;2022-07-29T07:02:18;22.80;38.50
21335;DHT22;10826;52.536;13.432;2022-07-29T07:04:46;22.90;38.40
21335;DHT22;10826;52.536;13.432;2022-07-29T07:07:12;23.00;38.30
21335;DHT22;10826;52.536;13.432;2022-07-29T07:09:38;23.00;38.10
21335;DHT22;10826;52.536;13.432;2022-07-29T07:12:04;23.10;38.20
21335;DHT22;10826;52.536;13.432;2022-07-29T07:14:31;23.10;38.00
21335;DHT22;10826;52.536;13.432;2022-07-29T07:16:57;23.20;37.90
21335;DHT22;10826;52.536;13.432;2022-07-29T07:19:26;23.30;38.00
21335;DHT22;10826;52.536;13.432;2022-07-29T07:21:53;23.40;37.90
21335;DHT22;10826;52.536;13.432;2022-07-29T07:24:21;23.40;37.50
21335;DHT22;10826;52.536;13.432;2022-07-29T07:26:47;23.50;37.30
21335;DHT22;10826;52.536;13.432;2022-07-29T07:29:13;23.50;37.80
21335;DHT22;10826;52.536;13.432;2022-07-29T07:31:40;23.60;36.80
21335;DHT22;10826;52.536;13.432;2022-07-29T07:34:06;23.70;36.90
21335;DHT22;10826;52.536;13.432;2022-07-29T07:36:32;23.70;36.90
21335;DHT22;10826;52.536;13.432;2022-07-29T07:38:58;23.70;36.80
21335;DHT22;10826;52.536;13.432;2022-07-29T07:41:24;23.70;37.20
21335;DHT22;10826;52.536;13.432;2022-07-29T07:43:50;23.70;37.00
21335;DHT22;10826;52.536;13.432;2022-07-29T07:46:16;23.70;36.70
21335;DHT22;10826;52.536;13.432;2022-07-29T07:48:43;23.80;36.60
21335;DHT22;10826;52.536;13.432;2022-07-29T07:51:09;23.80;36.60
21335;DHT22;10826;52.536;13.432;2022-07-29T07:53:35;23.80;36.70
21335;DHT22;10826;52.536;13.432;2022-07-29T07:56:01;23.90;36.40
21335;DHT22;10826;52.536;13.432;2022-07-29T07:58:28;23.90;36.30
21335;DHT22;10826;52.536;13.432;2022-07-29T08:00:54;23.90;36.30
21335;DHT22;10826;52.536;13.432;2022-07-29T08:03:21;23.90;35.90
21335;DHT22;10826;52.536;13.432;2022-07-29T08:05:47;24.00;35.60
21335;DHT22;10826;52.536;13.432;2022-07-29T08:08:13;24.00;35.60
21335;DHT22;10826;52.536;13.432;2022-07-29T08:10:39;24.10;35.20
21335;DHT22;10826;52.536;13.432;2022-07-29T08:13:18;24.10;35.00
21335;DHT22;10826;52.536;13.432;2022-07-29T08:15:46;24.20;34.90
21335;DHT22;10826;52.536;13.432;2022-07-29T08:18:13;24.20;35.00
21335;DHT22;10826;52.536;13.432;2022-07-29T08:20:39;24.30;35.00
21335;DHT22;10826;52.536;13.432;2022-07-29T08:23:06;24.40;34.60
21335;DHT22;10826;52.536;13.432;2022-07-29T08:25:36;24.50;34.50
21335;DHT22;10826;52.536;13.432;2022-07-29T08:28:04;24.60;34.20
21335;DHT22;10826;52.536;13.432;2022-07-29T08:30:31;24.70;34.10
21335;DHT22;10826;52.536;13.432;2022-07-29T08:33:00;24.80;33.80
21335;DHT22;10826;52.536;13.432;2022-07-29T08:35:27;24.80;33.60
21335;DHT22;10826;52.536;13.432;2022-07-29T08:37:53;24.90;33.30
21335;DHT22;10826;52.536;13.432;2022-07-29T08:40:20;25.00;33.00
21335;DHT22;10826;52.536;13.432;2022-07-29T08:42:50;25.00;32.70
21335;DHT22;10826;52.536;13.432;2022-07-29T08:45:16;25.00;32.50
21335;DHT22;10826;52.536;13.432;2022-07-29T08:47:44;25.10;32.20
21335;DHT22;10826;52.536;13.432;2022-07-29T08:50:11;25.20;31.80
21335;DHT22;10826;52.536;13.432;2022-07-29T08:52:44;25.20;31.70
21335;DHT22;10826;52.536;13.432;2022-07-29T08:55:10;25.20;31.70
21335;DHT22;10826;52.536;13.432;2022-07-29T08:57:38;25.30;31.80
21335;DHT22;10826;52.536;13.432;2022-07-29T09:00:07;25.30;31.80
21335;DHT22;10826;52.536;13.432;2022-07-29T09:02:39;25.30;31.80
21335;DHT22;10826;52.536;13.432;2022-07-29T09:05:10;25.40;31.70
21335;DHT22;10826;52.536;13.432;2022-07-29T09:07:38;25.40;31.30
21335;DHT22;10826;52.536;13.432;2022-07-29T09:10:07;25.40;31.20
21335;DHT22;10826;52.536;13.432;2022-07-29T09:12:34;25.40;31.00
21335;DHT22;10826;52.536;13.432;2022-07-29T09:15:00;25.50;31.00
21335;DHT22;10826;52.536;13.432;2022-07-29T09:17:43;25.60;30.90
21335;DHT22;10826;52.536;13.432;2022-07-29T09:20:13;25.70;30.80
21335;DHT22;10826;52.536;13.432;2022-07-29T09:22:41;25.70;30.80
21335;DHT22;10826;52.536;13.432;2022-07-29T09:25:08;25.70;30.60
21335;DHT22;10826;52.536;13.432;2022-07-29T09:27:37;25.80;30.50
21335;DHT22;10826;52.536;13.432;2022-07-29T09:30:09;25.80;30.20
21335;DHT22;10826;52.536;13.432;2022-07-29T09:32:56;25.90;29.90
21335;DHT22;10826;52.536;13.432;2022-07-29T09:35:25;26.00;30.00
21335;DHT22;10826;52.536;13.432;2022-07-29T09:37:52;26.00;30.00
21335;DHT22;10826;52.536;13.432;2022-07-29T09:42:47;26.10;30.30
21335;DHT22;10826;52.536;13.432;2022-07-29T09:45:26;26.20;29.80
21335;DHT22;10826;52.536;13.432;2022-07-29T09:47:54;26.30;29.60
21335;DHT22;10826;52.536;13.432;2022-07-29T09:50:22;26.30;29.50
21335;DHT22;10826;52.536;13.432;2022-07-29T09:53:01;26.40;29.10
21335;DHT22;10826;52.536;13.432;2022-07-29T09:55:27;26.50;29.10
21335;DHT22;10826;52.536;13.432;2022-07-29T09:57:53;26.60;28.80
21335;DHT22;10826;52.536;13.432;2022-07-29T10:00:20;26.80;28.60
21335;DHT22;10826;52.536;13.432;2022-07-29T10:02:48;26.90;28.70
21335;DHT22;10826;52.536;13.432;2022-07-29T10:05:25;27.00;28.80
21335;DHT22;10826;52.536;13.432;2022-07-29T10:07:57;27.20;28.20
21335;DHT22;10826;52.536;13.432;2022-07-29T10:10:32;27.30;27.70
21335;DHT22;10826;52.536;13.432;2022-07-29T10:13:02;27.40;27.00
21335;DHT22;10826;52.536;13.432;2022-07-29T10:15:32;27.50;26.50
21335;DHT22;10826;52.536;13.432;2022-07-29T10:18:03;27.60;26.40
21335;DHT22;10826;52.536;13.432;2022-07-29T10:20:29;27.60;26.30
21335;DHT22;10826;52.536;13.432;2022-07-29T10:22:56;27.60;26.00
21335;DHT22;10826;52.536;13.432;2022-07-29T10:25:23;27.70;25.70
21335;DHT22;10826;52.536;13.432;2022-07-29T10:27:50;27.60;25.40
21335;DHT22;10826;52.536;13.432;2022-07-29T10:30:18;27.60;25.70
21335;DHT22;10826;52.536;13.432;2022-07-29T10:35:54;27.60;25.70
21335;DHT22;10826;52.536;13.432;2022-07-29T10:39:24;27.60;25.20
21335;DHT22;10826;52.536;13.432;2022-07-29T10:42:02;27.60;25.30
21335;DHT22;10826;52.536;13.432;2022-07-29T10:44:40;27.60;25.10
21335;DHT22;10826;52.536;13.432;2022-07-29T10:47:07;27.60;25.50
21335;DHT22;10826;52.536;13.432;2022-07-29T10:49:33;27.60;25.70
21335;DHT22;10826;52.536;13.432;2022-07-29T10:52:07;27.60;25.60
21335;DHT22;10826;52.536;13.432;2022-07-29T10:54:44;27.70;25.60
21335;DHT22;10826;52.536;13.432;2022-07-29T11:07:30;28.20;25.50
21335;DHT22;10826;52.536;13.432;2022-07-29T11:15:15;28.50;25.20
21335;DHT22;10826;52.536;13.432;2022-07-29T11:20:44;28.70;24.90
21335;DHT22;10826;52.536;13.432;2022-07-29T11:23:28;28.80;24.80
21335;DHT22;10826;52.536;13.432;2022-07-29T11:26:13;28.90;24.70
21335;DHT22;10826;52.536;13.432;2022-07-29T11:29:03;28.90;25.00
21335;DHT22;10826;52.536;13.432;2022-07-29T11:31:46;28.90;25.00
21335;DHT22;10826;52.536;13.432;2022-07-29T11:34:32;28.90;25.00
21335;DHT22;10826;52.536;13.432;2022-07-29T11:39:40;29.00;25.60
21335;DHT22;10826;52.536;13.432;2022-07-29T11:47:41;29.00;25.70
21335;DHT22;10826;52.536;13.432;2022-07-29T11:50:35;29.00;25.80
21335;DHT22;10826;52.536;13.432;2022-07-29T11:53:12;29.00;26.00
21335;DHT22;10826;52.536;13.432;2022-07-29T11:55:40;29.00;26.30
21335;DHT22;10826;52.536;13.432;2022-07-29T11:58:07;28.90;25.70
21335;DHT22;10826;52.536;13.432;2022-07-29T12:00:36;29.00;26.30
21335;DHT22;10826;52.536;13.432;2022-07-29T12:03:05;28.90;25.90
21335;DHT22;10826;52.536;13.432;2022-07-29T12:05:42;28.90;26.10
21335;DHT22;10826;52.536;13.432;2022-07-29T12:08:18;28.90;26.50
21335;DHT22;10826;52.536;13.432;2022-07-29T12:10:49;28.90;26.60
21335;DHT22;10826;52.536;13.432;2022-07-29T12:13:18;28.80;26.80
21335;DHT22;10826;52.536;13.432;2022-07-29T12:15:56;28.70;27.20
21335;DHT22;10826;52.536;13.432;2022-07-29T12:18:24;28.70;27.20
21335;DHT22;10826;52.536;13.432;2022-07-29T12:21:01;28.70;28.20
21335;DHT22;10826;52.536;13.432;2022-07-29T12:23:33;28.70;27.90
21335;DHT22;10826;52.536;13.432;2022-07-29T12:26:04;28.70;28.40
21335;DHT22;10826;52.536;13.432;2022-07-29T12:28:39;28.60;28.40
21335;DHT22;10826;52.536;13.432;2022-07-29T12:31:05;28.60;28.60
21335;DHT22;10826;52.536;13.432;2022-07-29T12:33:37;28.60;28.80
21335;DHT22;10826;52.536;13.432;2022-07-29T12:36:04;28.60;29.00
21335;DHT22;10826;52.536;13.432;2022-07-29T12:38:30;28.60;29.10
21335;DHT22;10826;52.536;13.432;2022-07-29T12:40:56;28.70;29.20
21335;DHT22;10826;52.536;13.432;2022-07-29T12:43:24;28.60;29.30
21335;DHT22;10826;52.536;13.432;2022-07-29T12:45:52;28.60;29.40
21335;DHT22;10826;52.536;13.432;2022-07-29T12:48:35;28.70;29.20
21335;DHT22;10826;52.536;13.432;2022-07-29T12:51:03;28.70;29.20
21335;DHT22;10826;52.536;13.432;2022-07-29T12:53:31;28.70;29.10
21335;DHT22;10826;52.536;13.432;2022-07-29T12:55:58;28.70;29.00
21335;DHT22;10826;52.536;13.432;2022-07-29T12:58:28;28.70;28.90
21335;DHT22;10826;52.536;13.432;2022-07-29T13:01:05;28.70;28.80
21335;DHT22;10826;52.536;13.432;2022-07-29T13:03:56;28.80;28.80
21335;DHT22;10826;52.536;13.432;2022-07-29T13:06:31;28.80;28.60
21335;DHT22;10826;52.536;13.432;2022-07-29T13:09:15;28.80;28.70
21335;DHT22;10826;52.536;13.432;2022-07-29T13:11:44;28.90;28.60
21335;DHT22;10826;52.536;13.432;2022-07-29T13:14:29;28.90;28.70
21335;DHT22;10826;52.536;13.432;2022-07-29T13:17:19;29.00;29.10
21335;DHT22;10826;52.536;13.432;2022-07-29T13:19:53;29.00;29.00
21335;DHT22;10826;52.536;13.432;2022-07-29T13:22:32;29.10;29.10
21335;DHT22;10826;52.536;13.432;2022-07-29T13:24:59;29.10;28.90
21335;DHT22;10826;52.536;13.432;2022-07-29T13:27:32;29.10;28.80
21335;DHT22;10826;52.536;13.432;2022-07-29T13:30:01;29.20;28.50
21335;DHT22;10826;52.536;13.432;2022-07-29T13:32:31;29.20;28.40
21335;DHT22;10826;52.536;13.432;2022-07-29T13:35:02;29.20;28.40
21335;DHT22;10826;52.536;13.432;2022-07-29T13:37:29;29.20;28.40
21335;DHT22;10826;52.536;13.432;2022-07-29T13:39:58;29.30;28.50
21335;DHT22;10826;52.536;13.432;2022-07-29T13:42:25;29.40;28.70
21335;DHT22;10826;52.536;13.432;2022-07-29T13:44:51;29.40;28.50
21335;DHT22;10826;52.536;13.432;2022-07-29T13:47:21;29.50;28.30
21335;DHT22;10826;52.536;13.432;2022-07-29T13:49:48;29.50;28.20
21335;DHT22;10826;52.536;13.432;2022-07-29T13:52:14;29.50;28.40
21335;DHT22;10826;52.536;13.432;2022-07-29T13:54:42;29.50;28.50
21335;DHT22;10826;52.536;13.432;2022-07-29T13:57:10;29.60;28.30
21335;DHT22;10826;52.536;13.432;2022-07-29T13:59:36;29.70;28.10
21335;DHT22;10826;52.536;13.432;2022-07-29T14:02:02;29.70;27.90
21335;DHT22;10826;52.536;13.432;2022-07-29T14:04:28;29.70;27.80
21335;DHT22;10826;52.536;13.432;2022-07-29T14:06:54;29.70;27.80
21335;DHT22;10826;52.536;13.432;2022-07-29T14:09:20;29.70;28.00
21335;DHT22;10826;52.536;13.432;2022-07-29T14:11:47;29.70;28.00
21335;DHT22;10826;52.536;13.432;2022-07-29T14:14:15;29.60;28.50
21335;DHT22;10826;52.536;13.432;2022-07-29T14:16:41;29.70;28.30
21335;DHT22;10826;52.536;13.432;2022-07-29T14:19:07;29.60;28.20
21335;DHT22;10826;52.536;13.432;2022-07-29T14:21:33;29.60;28.00
21335;DHT22;10826;52.536;13.432;2022-07-29T14:24:00;29.60;28.10
21335;DHT22;10826;52.536;13.432;2022-07-29T14:26:26;29.60;28.30
21335;DHT22;10826;52.536;13.432;2022-07-29T14:28:52;29.60;28.30
21335;DHT22;10826;52.536;13.432;2022-07-29T14:31:17;29.70;28.40
21335;DHT22;10826;52.536;13.432;2022-07-29T14:33:43;29.70;28.30
21335;DHT22;10826;52.536;13.432;2022-07-29T14:36:09;29.70;28.40
21335;DHT22;10826;52.536;13.432;2022-07-29T14:38:36;29.70;28.30
21335;DHT22;10826;52.536;13.432;2022-07-29T14:41:03;29.80;27.90
21335;DHT22;10826;52.536;13.432;2022-07-29T14:43:30;29.90;27.70
21335;DHT22;10826;52.536;13.432;2022-07-29T14:45:55;29.90;27.50
21335;DHT22;10826;52.536;13.432;2022-07-29T14:48:21;29.90;27.70
21335;DHT22;10826;52.536;13.432;2022-07-29T14:50:47;29.90;27.70
21335;DHT22;10826;52.536;13.432;2022-07-29T14:53:13;29.90;27.40
21335;DHT22;10826;52.536;13.432;2022-07-29T14:55:40;29.90;27.60
21335;DHT22;10826;52.536;13.432;2022-07-29T14:58:07;29.90;27.30
21335;DHT22;10826;52.536;13.432;2022-07-29T15:00:33;29.90;27.20
21335;DHT22;10826;52.536;13.432;2022-07-29T15:03:00;29.90;27.10
21335;DHT22;10826;52.536;13.432;2022-07-29T15:05:27;29.90;27.20
21335;DHT22;10826;52.536;13.432;2022-07-29T15:07:53;29.90;27.10
21335;DHT22;10826;52.536;13.432;2022-07-29T15:10:19;30.00;27.40
21335;DHT22;10826;52.536;13.432;2022-07-29T15:12:48;30.00;27.60
21335;DHT22;10826;52.536;13.432;2022-07-29T15:15:13;30.10;27.20
21335;DHT22;10826;52.536;13.432;2022-07-29T15:17:39;30.20;26.80
21335;DHT22;10826;52.536;13.432;2022-07-29T15:20:06;30.20;27.00
21335;DHT22;10826;52.536;13.432;2022-07-29T15:22:32;30.30;26.80
21335;DHT22;10826;52.536;13.432;2022-07-29T15:24:58;30.30;26.70
21335;DHT22;10826;52.536;13.432;2022-07-29T15:27:24;30.30;26.50
21335;DHT22;10826;52.536;13.432;2022-07-29T15:29:50;30.30;26.60
21335;DHT22;10826;52.536;13.432;2022-07-29T15:32:16;30.30;26.50
21335;DHT22;10826;52.536;13.432;2022-07-29T15:34:42;30.30;26.60
21335;DHT22;10826;52.536;13.432;2022-07-29T15:37:09;30.30;26.70
21335;DHT22;10826;52.536;13.432;2022-07-29T15:39:36;30.20;26.70
21335;DHT22;10826;52.536;13.432;2022-07-29T15:42:02;30.20;26.60
21335;DHT22;10826;52.536;13.432;2022-07-29T15:44:28;30.20;26.70
21335;DHT22;10826;52.536;13.432;2022-07-29T15:46:55;30.20;26.60
21335;DHT22;10826;52.536;13.432;2022-07-29T15:49:40;30.10;26.60
21335;DHT22;10826;52.536;13.432;2022-07-29T15:52:08;30.10;26.60
21335;DHT22;10826;52.536;13.432;2022-07-29T15:54:36;30.00;26.60
21335;DHT22;10826;52.536;13.432;2022-07-29T15:57:06;30.00;26.80
21335;DHT22;10826;52.536;13.432;2022-07-29T15:59:33;29.90;26.60
21335;DHT22;10826;52.536;13.432;2022-07-29T16:01:59;29.90;26.60